Time;durP1;ratioP1;P1;durP2;ratioP2;P2;SDS_P1;SDS_P2;PMS_P1;PMS_P2;Temp;Humidity;BMP_temperature;BMP_pressure;BME280_temperature;BME280_humidity;BME280_pressure;Samples;Min_cycle;Max_cycle;Signal;HPM_P1;HPM_P2
2023/09/29 00:00:47;;;;;;;65.10;41.10;;;;;;;11.64;100.00;101980.47;4973419;28;20083;-65
2023/09/29 00:03:15;;;;;;;64.70;40.53;;;;;;;11.60;100.00;101968.38;4973130;28;20375;-66
2023/09/29 00:05:42;;;;;;;65.77;41.00;;;;;;;11.41;100.00;101935.38;4973149;28;20530;-65
2023/09/29 00:08:09;;;;;;;65.57;40.27;;;;;;;11.69;100.00;101973.72;4973221;28;20340;-69
2023/09/29 00:10:39;;;;;;;73.83;43.17;;;;;;;11.71;100.00;101970.91;4973473;28;20027;-68
2023/09/29 00:13:05;;;;;;;68.40;41.67;;;;;;;11.75;100.00;101966.97;4971992;28;20031;-68
2023/09/29 00:15:33;;;;;;;65.83;38.77;;;;;;;11.65;100.00;101944.78;4976795;28;20031;-69
2023/09/29 00:18:01;;;;;;;76.22;43.65;;;;;;;11.72;100.00;101949.41;4977369;28;20088;-68
2023/09/29 00:20:27;;;;;;;67.80;44.35;;;;;;;11.78;100.00;101958.69;4976953;28;20030;-67
2023/09/29 00:22:59;;;;;;;68.20;44.30;;;;;;;11.42;100.00;101885.53;4977275;28;20042;-67
2023/09/29 00:25:27;;;;;;;66.47;43.50;;;;;;;11.86;100.00;101963.34;4976864;28;20486;-66
2023/09/29 00:27:53;;;;;;;68.72;40.97;;;;;;;11.83;100.00;101964.47;4977173;28;20041;-67
2023/09/29 00:30:19;;;;;;;68.53;42.70;;;;;;;11.77;100.00;101948.97;4978430;28;20105;-66
2023/09/29 00:32:47;;;;;;;75.97;45.57;;;;;;;11.72;100.00;101933.41;4978670;28;20034;-68
2023/09/29 00:35:29;;;;;;;76.55;45.65;;;;;;;11.72;100.00;101912.03;4980286;28;20029;-69
2023/09/29 00:37:56;;;;;;;81.93;50.13;;;;;;;11.77;100.00;101912.47;4978520;28;20033;-68
2023/09/29 00:40:23;;;;;;;77.90;46.37;;;;;;;11.76;100.00;101905.44;4976806;28;20379;-67
2023/09/29 00:42:49;;;;;;;77.83;48.97;;;;;;;11.81;100.00;101902.38;4975672;28;20058;-67
2023/09/29 00:45:19;;;;;;;78.33;48.27;;;;;;;11.81;100.00;101915.72;4975653;28;20034;-66
2023/09/29 00:47:45;;;;;;;81.10;48.40;;;;;;;11.86;100.00;101905.47;4977158;28;20541;-67
2023/09/29 00:50:14;;;;;;;68.90;44.67;;;;;;;12.04;100.00;101917.09;4977176;28;20081;-69
2023/09/29 00:52:42;;;;;;;73.30;46.22;;;;;;;12.13;100.00;101902.00;4976933;28;20066;-68
2023/09/29 00:55:13;;;;;;;;;;;;;;;12.34;100.00;101915.16;4978818;28;20046;-69
2023/09/29 00:57:44;;;;;;;71.30;42.83;;;;;;;12.30;100.00;101909.28;4977973;28;19913;-66
2023/09/29 01:02:57;;;;;;;63.47;45.33;;;;;;;12.46;100.00;101906.00;4976889;28;20034;-67
2023/09/29 01:05:23;;;;;;;75.43;48.23;;;;;;;12.54;100.00;101903.44;4976302;28;20031;-66
2023/09/29 01:07:51;;;;;;;75.60;48.90;;;;;;;12.57;100.00;101900.47;4975045;28;20031;-69
2023/09/29 01:10:17;;;;;;;69.05;45.70;;;;;;;12.59;100.00;101893.13;4976101;28;20125;-67
2023/09/29 01:12:44;;;;;;;67.33;46.43;;;;;;;12.53;100.00;101876.84;4976393;28;20099;-67
2023/09/29 01:15:15;;;;;;;77.73;46.93;;;;;;;12.53;100.00;101880.38;4976259;28;20034;-66
2023/09/29 01:17:42;;;;;;;68.97;47.10;;;;;;;12.60;100.00;101884.13;4976085;28;20066;-67
2023/09/29 01:20:17;;;;;;;73.97;47.97;;;;;;;12.50;100.00;101871.81;4976101;28;20463;-67
2023/09/29 01:22:46;;;;;;;74.20;47.20;;;;;;;12.57;100.00;101880.91;4976304;28;20058;-68
2023/09/29 01:25:17;;;;;;;80.63;49.07;;;;;;;12.63;100.00;101880.31;4975976;28;20055;-68
2023/09/29 01:28:09;;;;;;;61.00;44.67;;;;;;;12.67;100.00;101885.19;4976371;28;20061;-67
2023/09/29 01:30:36;;;;;;;66.30;44.57;;;;;;;12.74;100.00;101879.28;4976129;28;20039;-67
2023/09/29 01:33:02;;;;;;;65.33;44.00;;;;;;;12.71;100.00;101867.88;4975710;28;20468;-69
2023/09/29 01:35:28;;;;;;;68.80;49.47;;;;;;;12.84;100.00;101880.91;4975643;28;20125;-67
2023/09/29 01:37:59;;;;;;;63.80;43.60;;;;;;;12.83;100.00;101873.88;4974589;28;20489;-67
2023/09/29 01:40:25;;;;;;;65.00;43.63;;;;;;;12.59;100.00;101850.38;4975585;28;20034;-68
2023/09/29 01:42:51;;;;;;;62.57;43.47;;;;;;;12.58;100.00;101854.03;4975717;28;20026;-68
2023/09/29 01:45:18;;;;;;;68.23;46.90;;;;;;;12.53;100.00;101861.66;4975520;28;20027;-68
2023/09/29 01:47:46;;;;;;;66.23;45.97;;;;;;;12.54;100.00;101863.34;4975495;28;20069;-68
2023/09/29 01:50:18;;;;;;;63.72;43.03;;;;;;;12.42;100.00;101853.81;4975455;28;20030;-69
2023/09/29 01:52:46;;;;;;;63.27;43.27;;;;;;;12.43;100.00;101863.53;4975613;28;20391;-66
2023/09/29 01:55:16;;;;;;;66.05;44.60;;;;;;;12.46;100.00;101863.25;4975433;28;20038;-67
2023/09/29 01:57:43;;;;;;;60.27;42.13;;;;;;;12.42;100.00;101864.50;4975356;28;20062;-66
2023/09/29 02:00:24;;;;;;;64.27;42.03;;;;;;;12.24;100.00;101826.22;4975344;28;20117;-68
2023/09/29 02:02:52;;;;;;;65.07;40.87;;;;;;;12.40;100.00;101853.13;4975527;28;20034;-66
2023/09/29 02:05:18;;;;;;;53.13;38.80;;;;;;;12.47;100.00;101851.56;4974025;28;20054;-66
2023/09/29 02:07:44;;;;;;;67.10;42.80;;;;;;;12.45;100.00;101848.22;4975522;28;20062;-68
2023/09/29 02:10:10;;;;;;;61.47;42.47;;;;;;;12.51;100.00;101842.28;4975190;28;20034;-66
2023/09/29 02:12:46;;;;;;;62.47;40.00;;;;;;;12.52;100.00;101833.25;4975362;28;20105;-68
2023/09/29 02:15:15;;;;;;;57.27;39.33;;;;;;;12.28;100.00;101793.72;4974626;28;20035;-67
2023/09/29 02:17:41;;;;;;;66.78;41.00;;;;;;;12.60;100.00;101836.03;4976467;28;20547;-68
2023/09/29 02:20:29;;;;;;;60.70;40.50;;;;;;;12.64;100.00;101832.06;4977722;28;20383;-68
2023/09/29 02:22:59;;;;;;;70.03;40.53;;;;;;;12.64;100.00;101826.72;4975354;28;20121;-69
2023/09/29 02:25:27;;;;;;;63.10;38.33;;;;;;;12.73;100.00;101841.03;4974781;28;20043;-68
2023/09/29 02:27:54;;;;;;;;;;;;;;;12.78;100.00;101827.19;4974468;28;20050;-68
2023/09/29 02:30:19;;;;;;;60.40;38.57;;;;;;;12.70;100.00;101815.41;4974876;28;20263;-67
2023/09/29 02:32:45;;;;;;;54.30;37.53;;;;;;;12.71;100.00;101825.09;4974767;28;20090;-67
2023/09/29 02:35:10;;;;;;;63.03;36.27;;;;;;;12.82;100.00;101839.28;4974803;28;20023;-66
2023/09/29 02:37:37;;;;;;;53.67;37.17;;;;;;;12.75;100.00;101825.69;4974081;28;20379;-70
2023/09/29 02:40:09;;;;;;;53.50;34.83;;;;;;;12.90;100.00;101842.88;4974409;28;20035;-67
2023/09/29 02:42:34;;;;;;;51.60;35.50;;;;;;;12.85;100.00;101829.13;4974695;28;20030;-66
2023/09/29 02:45:00;;;;;;;54.73;35.17;;;;;;;12.93;100.00;101828.34;4974531;28;20081;-68
2023/09/29 02:47:25;;;;;;;51.30;36.60;;;;;;;12.93;100.00;101836.38;4974565;28;20118;-67
2023/09/29 02:49:51;;;;;;;54.63;37.73;;;;;;;12.94;100.00;101830.88;4973306;28;20027;-68
2023/09/29 02:52:17;;;;;;;53.17;37.03;;;;;;;12.90;100.00;101809.94;4973003;28;20037;-67
2023/09/29 02:54:42;;;;;;;57.77;37.43;;;;;;;12.94;100.00;101814.81;4974496;28;20074;-67
2023/09/29 02:57:08;;;;;;;50.67;36.23;;;;;;;12.89;100.00;101800.25;4974507;28;20422;-66
2023/09/29 02:59:34;;;;;;;55.43;36.77;;;;;;;12.57;100.00;101750.81;4973085;28;20027;-68
2023/09/29 03:02:01;;;;;;;52.23;36.63;;;;;;;12.91;100.00;101795.56;4974320;28;20101;-69
2023/09/29 03:04:26;;;;;;;57.33;37.77;;;;;;;12.94;100.00;101808.63;4974357;28;20022;-68
2023/09/29 03:06:52;;;;;;;52.33;36.47;;;;;;;13.00;100.00;101810.69;4972899;28;20530;-68
2023/09/29 03:09:19;;;;;;;59.77;38.17;;;;;;;12.89;100.00;101778.84;4974214;28;20034;-69
2023/09/29 03:11:45;;;;;;;56.97;36.97;;;;;;;12.83;100.00;101755.41;4974267;28;20502;-68
2023/09/29 03:14:11;;;;;;;51.10;36.03;;;;;;;12.97;100.00;101774.41;4972828;28;20030;-68
2023/09/29 03:16:37;;;;;;;69.30;40.53;;;;;;;13.07;100.00;101774.34;4974576;28;20035;-69
2023/09/29 03:19:03;;;;;;;54.67;34.60;;;;;;;12.78;100.00;101730.97;4974109;28;20038;-69
2023/09/29 03:21:29;;;;;;;54.50;34.30;;;;;;;13.10;100.00;101779.38;4973920;28;20038;-67
2023/09/29 03:23:54;;;;;;;53.07;34.93;;;;;;;13.06;100.00;101761.97;4973030;28;20053;-68
2023/09/29 03:26:22;;;;;;;56.63;35.53;;;;;;;13.12;100.00;101755.16;4974214;28;20089;-69
2023/09/29 03:28:53;;;;;;;57.53;33.88;;;;;;;13.14;100.00;101764.69;4973854;28;20055;-68
2023/09/29 03:31:19;;;;;;;57.30;31.80;;;;;;;13.21;100.00;101764.94;4973721;28;20045;-67
2023/09/29 03:33:44;;;;;;;47.90;29.07;;;;;;;13.28;100.00;101772.19;4974429;28;20379;-68
2023/09/29 03:36:10;;;;;;;48.23;29.20;;;;;;;13.30;100.00;101775.56;4973559;28;20038;-67
2023/09/29 03:38:37;;;;;;;50.77;29.10;;;;;;;13.31;100.00;101781.75;4973879;28;20453;-68
2023/09/29 03:41:06;;;;;;;47.90;28.73;;;;;;;13.14;100.00;101759.34;4973569;28;20078;-67
2023/09/29 03:43:31;;;;;;;48.05;28.08;;;;;;;13.24;100.00;101776.16;4973571;28;20035;-67
2023/09/29 03:45:57;;;;;;;43.17;27.10;;;;;;;13.19;100.00;101765.09;4973513;28;20378;-67
2023/09/29 03:48:25;;;;;;;46.63;27.70;;;;;;;13.08;100.00;101753.78;4972835;28;20054;-66
2023/09/29 03:50:50;;;;;;;52.55;28.63;;;;;;;13.08;100.00;101757.31;4972008;28;20057;-66
2023/09/29 03:53:16;;;;;;;47.33;27.50;;;;;;;13.09;100.00;101766.16;4973467;28;20446;-69
2023/09/29 03:55:43;;;;;;;54.90;28.67;;;;;;;13.13;100.00;101771.03;4973494;28;20039;-68
2023/09/29 03:58:09;;;;;;;50.10;27.97;;;;;;;13.02;100.00;101755.25;4973434;28;20039;-67
2023/09/29 04:00:35;;;;;;;52.50;28.83;;;;;;;13.07;100.00;101768.16;4973333;28;20074;-67
2023/09/29 04:03:00;;;;;;;49.77;27.73;;;;;;;13.11;100.00;101770.38;4973248;28;20038;-67
2023/09/29 04:05:26;;;;;;;59.70;30.63;;;;;;;13.11;100.00;101770.38;4973202;28;20498;-68
2023/09/29 04:07:51;;;;;;;51.47;28.47;;;;;;;13.14;100.00;101763.88;4972947;28;20055;-66
2023/09/29 04:10:17;;;;;;;56.43;30.20;;;;;;;13.16;100.00;101762.72;4973325;28;20390;-68
2023/09/29 04:12:45;;;;;;;55.93;30.90;;;;;;;13.13;100.00;101755.00;4973255;28;20031;-66
2023/09/29 04:15:11;;;;;;;58.03;32.53;;;;;;;13.08;100.00;101749.28;4973209;28;20026;-68
2023/09/29 04:17:38;;;;;;;54.17;31.33;;;;;;;13.07;100.00;101754.78;4972908;28;20038;-65
2023/09/29 04:20:05;;;;;;;60.23;31.00;;;;;;;12.97;100.00;101722.75;4971630;28;20030;-67
2023/09/29 04:22:32;;;;;;;60.95;33.30;;;;;;;13.14;100.00;101743.31;4973230;28;20034;-68
2023/09/29 04:25:02;;;;;;;60.67;33.90;;;;;;;12.95;100.00;101706.03;4972740;28;20122;-67
2023/09/29 04:27:31;;;;;;;52.50;31.63;;;;;;;13.01;100.00;101710.78;4973161;28;20039;-67
2023/09/29 04:29:58;;;;;;;57.97;33.53;;;;;;;13.19;100.00;101732.16;4973026;28;20023;-69
2023/09/29 04:32:23;;;;;;;51.07;31.37;;;;;;;13.13;100.00;101720.22;4972746;28;20039;-66
2023/09/29 04:34:51;;;;;;;54.58;32.22;;;;;;;13.15;100.00;101715.56;4971820;28;20058;-68
2023/09/29 04:37:17;;;;;;;61.30;32.57;;;;;;;13.24;100.00;101728.03;4973049;28;20066;-69
2023/09/29 04:39:43;;;;;;;47.77;30.60;;;;;;;13.37;100.00;101732.13;4972974;28;20031;-68
2023/09/29 04:42:09;;;;;;;54.60;34.90;;;;;;;13.45;100.00;101732.19;4972822;28;20031;-69
2023/09/29 04:44:34;;;;;;;53.83;32.93;;;;;;;13.42;100.00;101719.13;4974398;28;20085;-68
2023/09/29 04:47:00;;;;;;;54.23;33.13;;;;;;;13.33;100.00;101699.50;4973526;28;20027;-69
2023/09/29 04:49:26;;;;;;;60.53;35.43;;;;;;;13.31;100.00;101715.72;4972296;28;20033;-69
2023/09/29 04:51:51;;;;;;;61.37;35.40;;;;;;;13.34;100.00;101717.25;4974134;28;20457;-68
2023/09/29 04:54:18;;;;;;;51.83;32.83;;;;;;;13.29;100.00;101709.66;4973564;28;20085;-68
2023/09/29 04:56:43;;;;;;;54.83;32.63;;;;;;;13.26;100.00;101698.44;4974004;28;20085;-68
2023/09/29 04:59:09;;;;;;;50.00;32.40;;;;;;;13.37;100.00;101708.91;4973958;28;20113;-67
2023/09/29 05:01:36;;;;;;;51.00;31.90;;;;;;;13.45;100.00;101708.09;4975659;28;20027;-69
2023/09/29 05:04:05;;;;;;;50.43;35.33;;;;;;;13.37;100.00;101695.53;4976403;28;20033;-67
2023/09/29 05:06:31;;;;;;;52.33;32.60;;;;;;;13.49;100.00;101701.44;4986900;28;20019;-67
2023/09/29 05:08:57;;;;;;;55.93;35.83;;;;;;;13.48;100.00;101697.06;4987609;28;20049;-67
2023/09/29 05:11:24;;;;;;;48.83;32.57;;;;;;;13.47;100.00;101690.03;4989291;28;20018;-68
2023/09/29 05:13:53;;;;;;;56.57;32.50;;;;;;;13.54;100.00;101709.81;4983975;28;20359;-69
2023/09/29 05:16:19;;;;;;;53.40;32.67;;;;;;;13.21;100.00;101660.63;4984915;28;20488;-69
2023/09/29 05:18:45;;;;;;;57.60;36.67;;;;;;;13.02;100.00;101626.91;4982305;28;20027;-67
2023/09/29 05:21:11;;;;;;;58.10;34.57;;;;;;;13.37;100.00;101687.50;4987876;28;20462;-66
2023/09/29 05:23:38;;;;;;;55.70;34.07;;;;;;;13.41;100.00;101696.03;4981245;28;20030;-69
2023/09/29 05:26:07;;;;;;;51.10;33.50;;;;;;;13.45;100.00;101692.03;4991172;28;20475;-69
2023/09/29 05:28:37;;;;;;;53.90;32.30;;;;;;;13.18;100.00;101642.22;4995528;28;20045;-69
2023/09/29 05:31:04;;;;;;;50.50;32.53;;;;;;;13.53;100.00;101697.44;4994078;28;20041;-75
2023/09/29 05:33:31;;;;;;;51.03;33.83;;;;;;;13.54;100.00;101685.72;4994284;28;20030;-68
2023/09/29 05:35:57;;;;;;;48.73;33.07;;;;;;;13.60;100.00;101691.31;4995736;28;20505;-71
2023/09/29 05:38:23;;;;;;;48.30;33.87;;;;;;;13.67;100.00;101683.47;4997269;28;20374;-70
2023/09/29 05:40:52;;;;;;;48.83;30.87;;;;;;;13.61;100.00;101676.91;4998014;28;20061;-68
2023/09/29 05:43:18;;;;;;;49.17;31.57;;;;;;;13.79;100.00;101695.56;4997377;28;20026;-69
2023/09/29 05:45:47;;;;;;;45.60;30.67;;;;;;;13.84;100.00;101697.75;4995053;28;20026;-71
2023/09/29 05:48:14;;;;;;;44.37;30.23;;;;;;;13.98;100.00;101699.00;4994979;28;20109;-69
2023/09/29 05:50:40;;;;;;;42.77;30.60;;;;;;;13.95;100.00;101692.97;4995137;28;20100;-69
2023/09/29 05:53:06;;;;;;;43.87;31.67;;;;;;;14.10;100.00;101708.38;4995015;28;20053;-67
2023/09/29 05:55:32;;;;;;;40.23;27.87;;;;;;;14.09;100.00;101696.84;4994873;28;20473;-70
2023/09/29 05:57:58;;;;;;;37.80;27.13;;;;;;;14.11;100.00;101688.63;4995026;28;20113;-67
2023/09/29 06:00:25;;;;;;;52.63;30.70;;;;;;;14.26;100.00;101703.09;4996727;28;20030;-69
2023/09/29 06:02:51;;;;;;;38.07;28.77;;;;;;;14.27;100.00;101713.66;4996645;28;20034;-70
2023/09/29 06:05:17;;;;;;;41.00;27.47;;;;;;;14.14;100.00;101693.66;4996638;28;20436;-70
2023/09/29 06:07:43;;;;;;;38.70;28.20;;;;;;;14.21;100.00;101710.78;4996265;28;20057;-67
2023/09/29 06:10:10;;;;;;;39.10;30.30;;;;;;;14.20;100.00;101707.28;4994554;28;20375;-70
2023/09/29 06:12:37;;;;;;;48.10;29.87;;;;;;;14.18;100.00;101711.13;4992298;28;20076;-68
2023/09/29 06:15:03;;;;;;;40.90;27.07;;;;;;;14.14;100.00;101709.75;4994343;28;20080;-66
2023/09/29 06:17:30;;;;;;;43.70;30.00;;;;;;;13.98;100.00;101682.91;4994482;28;20072;-71
2023/09/29 06:19:56;;;;;;;38.60;29.67;;;;;;;13.98;100.00;101675.72;4994497;28;20479;-70
2023/09/29 06:22:22;;;;;;;39.63;28.87;;;;;;;14.09;100.00;101690.66;4994470;28;20034;-67
2023/09/29 06:24:48;;;;;;;47.17;35.80;;;;;;;14.14;100.00;101689.16;4994163;28;20093;-69
2023/09/29 06:27:14;;;;;;;37.23;26.47;;;;;;;14.23;100.00;101682.00;4994236;28;20104;-69
2023/09/29 06:29:40;;;;;;;37.80;27.00;;;;;;;14.31;100.00;101673.97;4982989;28;20026;-69
2023/09/29 06:32:06;;;;;;;34.07;26.17;;;;;;;14.46;100.00;101672.34;4974988;28;20062;-68
2023/09/29 06:34:32;;;;;;;33.70;25.37;;;;;;;14.64;100.00;101687.44;4974793;28;20382;-69
2023/09/29 06:36:58;;;;;;;32.57;26.13;;;;;;;14.69;100.00;101666.31;4975306;28;20058;-66
2023/09/29 06:39:23;;;;;;;37.57;26.97;;;;;;;14.82;100.00;101677.41;4974567;28;20117;-69
2023/09/29 06:41:49;;;;;;;31.83;24.73;;;;;;;14.82;100.00;101672.03;4974971;28;20038;-69
2023/09/29 06:44:14;;;;;;;28.23;22.60;;;;;;;14.81;100.00;101671.19;4974772;28;20050;-68
2023/09/29 06:46:40;;;;;;;32.27;24.13;;;;;;;14.77;100.00;101663.66;4974589;28;20055;-69
2023/09/29 06:49:05;;;;;;;30.83;23.17;;;;;;;14.83;100.00;101662.97;4980665;28;20109;-68
2023/09/29 06:51:31;;;;;;;37.60;22.77;;;;;;;14.94;100.00;101659.94;4991794;28;20030;-66
2023/09/29 06:53:56;;;;;;;29.40;22.30;;;;;;;14.86;100.00;101630.44;4993396;28;20062;-66
2023/09/29 06:56:22;;;;;;;28.37;23.93;;;;;;;15.25;100.00;101669.94;4992371;28;20066;-71
2023/09/29 06:58:48;;;;;;;28.47;21.00;;;;;;;15.29;100.00;101657.84;4993132;28;20543;-74
2023/09/29 07:01:14;;;;;;;26.03;22.03;;;;;;;15.56;100.00;101676.25;4993161;28;20058;-68
2023/09/29 07:03:39;;;;;;;35.20;21.27;;;;;;;15.63;100.00;101671.91;4993101;28;20113;-69
2023/09/29 07:06:05;;;;;;;32.50;22.53;;;;;;;15.48;100.00;101636.84;4993370;28;20113;-68
2023/09/29 07:08:31;;;;;;;26.50;22.00;;;;;;;15.50;100.00;101623.25;4993836;28;20030;-69
2023/09/29 07:10:57;;;;;;;28.70;21.67;;;;;;;15.93;100.00;101661.38;4993388;28;20141;-67
2023/09/29 07:13:23;;;;;;;28.63;20.87;;;;;;;16.01;100.00;101664.00;4993725;28;20053;-66
2023/09/29 07:15:49;;;;;;;36.40;23.43;;;;;;;16.08;100.00;101659.59;4993448;28;20426;-68
2023/09/29 07:18:16;;;;;;;25.07;21.67;;;;;;;16.18;100.00;101659.34;4993645;28;20034;-68
2023/09/29 07:20:44;;;;;;;31.27;21.33;;;;;;;16.28;100.00;101662.66;4993742;28;20038;-69
2023/09/29 07:23:10;;;;;;;29.73;21.57;;;;;;;16.34;100.00;101646.66;4994166;28;20022;-69
2023/09/29 07:25:39;;;;;;;26.77;21.67;;;;;;;16.36;100.00;101647.31;4993989;28;20505;-69
2023/09/29 07:28:18;;;;;;;29.87;20.90;;;;;;;16.38;100.00;101639.06;4993390;28;20113;-69
2023/09/29 07:30:45;;;;;;;29.33;19.67;;;;;;;16.53;100.00;101652.59;4993251;28;20140;-67
2023/09/29 07:33:11;;;;;;;32.10;22.17;;;;;;;16.28;100.00;101607.06;4993195;28;20030;-67
2023/09/29 07:35:38;;;;;;;31.07;21.27;;;;;;;16.44;100.00;101635.66;4993212;28;20042;-67
2023/09/29 07:38:04;;;;;;;30.07;21.60;;;;;;;16.38;100.00;101629.16;4993895;28;20069;-70
2023/09/29 07:40:32;;;;;;;32.33;22.37;;;;;;;16.46;100.00;101630.94;4993407;28;20022;-70
2023/09/29 07:42:58;;;;;;;26.47;21.80;;;;;;;16.45;100.00;101629.25;4992998;28;20062;-70
2023/09/29 07:45:23;;;;;;;27.40;19.10;;;;;;;16.45;100.00;101628.44;4992959;28;20034;-69
2023/09/29 07:47:49;;;;;;;31.40;21.97;;;;;;;16.42;100.00;101635.00;4992745;28;20426;-70
2023/09/29 07:50:15;;;;;;;25.10;19.97;;;;;;;16.32;100.00;101627.19;4992611;28;20037;-68
2023/09/29 07:52:40;;;;;;;28.13;19.67;;;;;;;16.39;100.00;101633.50;4992811;28;20113;-69
2023/09/29 07:55:07;;;;;;;25.57;20.67;;;;;;;16.37;100.00;101632.03;4993820;28;20030;-69
2023/09/29 07:57:33;;;;;;;28.20;21.17;;;;;;;16.35;100.00;101620.63;4992797;28;20089;-68
2023/09/29 07:59:59;;;;;;;29.97;20.47;;;;;;;16.43;100.00;101633.97;4992766;28;20042;-69
2023/09/29 08:02:25;;;;;;;27.87;19.60;;;;;;;16.42;100.00;101617.00;4992701;28;20034;-67
2023/09/29 08:04:51;;;;;;;27.57;20.57;;;;;;;16.35;100.00;101591.88;4992838;28;20037;-67
2023/09/29 08:07:17;;;;;;;29.00;18.80;;;;;;;16.59;100.00;101611.53;4994268;28;20030;-67
2023/09/29 08:09:44;;;;;;;24.73;18.90;;;;;;;16.72;100.00;101617.13;4994426;28;20164;-66
2023/09/29 08:12:09;;;;;;;26.67;18.10;;;;;;;16.86;100.00;101616.34;4992977;28;20038;-69
2023/09/29 08:14:35;;;;;;;27.17;17.10;;;;;;;17.00;100.00;101622.75;4991455;28;20027;-68
2023/09/29 08:17:01;;;;;;;30.67;18.00;;;;;;;16.99;100.00;101610.31;4992556;28;20197;-68
2023/09/29 08:19:28;;;;;;;26.13;17.25;;;;;;;17.09;100.00;101610.06;4991181;28;20027;-69
2023/09/29 08:21:54;;;;;;;27.52;17.30;;;;;;;17.28;100.00;101631.03;4992790;28;20478;-67
2023/09/29 08:24:20;;;;;;;26.83;16.95;;;;;;;17.44;100.00;101614.72;4992801;28;20062;-66
2023/09/29 08:26:46;;;;;;;23.38;17.65;;;;;;;17.59;100.00;101610.13;4992764;28;20505;-67
2023/09/29 08:29:15;;;;;;;20.88;15.27;;;;;;;17.71;100.00;101605.13;4993133;28;20504;-68
2023/09/29 08:31:42;;;;;;;26.70;15.45;;;;;;;17.64;100.00;101588.88;4992298;28;20027;-67
2023/09/29 08:34:08;;;;;;;23.95;15.45;;;;;;;17.65;100.00;101585.16;4992628;28;20033;-69
2023/09/29 08:36:33;;;;;;;20.20;14.98;;;;;;;17.78;100.00;101599.81;4995754;28;20034;-69
2023/09/29 08:38:59;;;;;;;21.92;15.15;;;;;;;17.81;100.00;101599.44;4996625;28;20030;-67
2023/09/29 08:41:29;;;;;;;22.40;15.60;;;;;;;17.74;100.00;101588.59;4997064;28;20034;-69
2023/09/29 08:43:55;;;;;;;23.77;16.13;;;;;;;17.56;100.00;101570.09;4996213;28;20100;-68
2023/09/29 08:46:21;;;;;;;21.75;16.08;;;;;;;17.63;100.00;101581.78;4996029;28;20371;-68
2023/09/29 08:48:47;;;;;;;25.40;16.73;;;;;;;17.76;100.00;101586.53;4996017;28;20484;-70
2023/09/29 08:51:15;;;;;;;19.15;15.73;;;;;;;17.80;100.00;101584.31;4996036;28;20462;-68
2023/09/29 08:53:42;;;;;;;24.08;17.02;;;;;;;17.72;100.00;101558.31;4996168;28;20030;-70
2023/09/29 08:56:12;;;;;;;25.02;16.08;;;;;;;17.99;100.00;101597.16;4996584;28;20038;-66
2023/09/29 08:58:38;;;;;;;28.40;15.85;;;;;;;18.03;100.00;101566.09;4996179;28;20378;-68
2023/09/29 09:01:05;;;;;;;23.77;15.23;;;;;;;18.32;100.00;101581.31;4995717;28;20462;-69
2023/09/29 09:03:31;;;;;;;22.17;16.02;;;;;;;18.43;100.00;101582.66;4995781;28;20147;-69
2023/09/29 09:05:57;;;;;;;27.77;16.90;;;;;;;18.48;100.00;101574.81;4996070;28;20482;-68
2023/09/29 09:08:24;;;;;;;25.60;16.00;;;;;;;18.59;100.00;101577.00;4995938;28;20092;-67
2023/09/29 09:10:58;;;;;;;21.15;16.55;;;;;;;18.58;100.00;101569.94;4995876;28;20018;-68
2023/09/29 09:13:27;;;;;;;23.77;17.25;;;;;;;18.63;100.00;101575.59;4996603;28;20022;-68
2023/09/29 09:16:00;;;;;;;25.05;17.38;;;;;;;18.58;100.00;101551.88;4995810;28;20053;-70
2023/09/29 09:18:27;;;;;;;25.13;16.23;;;;;;;18.62;100.00;101546.94;4995973;28;20026;-71
2023/09/29 09:20:57;;;;;;;25.35;17.25;;;;;;;18.82;100.00;101569.53;4995768;28;20026;-69
2023/09/29 09:23:23;;;;;;;26.95;16.33;;;;;;;18.72;100.00;101538.50;4995725;28;20101;-69
2023/09/29 09:25:49;;;;;;;23.98;15.60;;;;;;;18.94;100.00;101563.56;4995403;28;20073;-71
2023/09/29 09:28:17;;;;;;;24.15;16.13;;;;;;;18.98;100.00;101559.44;4996385;28;20478;-70
2023/09/29 09:30:44;;;;;;;26.23;15.50;;;;;;;18.94;100.00;101539.28;4995605;28;20034;-69
2023/09/29 09:33:25;;;;;;;23.83;14.07;;;;;;;19.04;100.00;101554.06;4995648;28;20035;-70
2023/09/29 09:35:51;;;;;;;20.48;16.45;;;;;;;19.05;100.00;101553.03;4995295;28;20026;-68
2023/09/29 09:38:17;;;;;;;22.30;15.10;;;;;;;19.02;100.00;101547.19;4995273;28;20030;-68
2023/09/29 09:40:48;;;;;;;26.38;16.58;;;;;;;18.97;100.00;101547.81;4995208;28;20032;-68
2023/09/29 09:43:15;;;;;;;23.85;13.57;;;;;;;18.99;100.00;101542.19;4995647;28;20553;-70
2023/09/29 09:45:43;;;;;;;22.67;13.48;;;;;;;19.01;100.00;101535.56;4995037;28;20022;-70
2023/09/29 09:48:10;;;;;;;20.63;16.25;;;;;;;19.07;100.00;101536.63;4994290;28;20604;-67
2023/09/29 09:50:40;;;;;;;19.92;14.88;;;;;;;19.08;100.00;101535.59;4995076;28;20313;-66
2023/09/29 09:53:09;;;;;;;24.17;15.02;;;;;;;19.06;100.00;101518.75;4993729;28;20034;-69
2023/09/29 09:56:01;;;;;;;19.83;14.00;;;;;;;19.13;100.00;101520.50;4994969;28;20121;-67
2023/09/29 09:58:27;;;;;;;21.35;15.27;;;;;;;19.01;100.00;101508.56;4995360;28;20034;-70
2023/09/29 10:00:55;;;;;;;26.75;14.48;;;;;;;19.15;100.00;101517.59;4996063;28;20023;-67
2023/09/29 10:03:21;;;;;;;23.45;13.80;;;;;;;19.16;100.00;101514.69;4995802;28;20031;-69
2023/09/29 10:05:52;;;;;;;18.45;14.52;;;;;;;19.31;100.00;101514.53;4995016;28;20053;-67
2023/09/29 10:08:31;;;;;;;23.60;15.10;;;;;;;19.41;100.00;101501.50;4995345;28;20093;-68
2023/09/29 10:11:11;;;;;;;24.33;14.73;;;;;;;19.63;100.00;101520.28;4996929;28;20481;-69
2023/09/29 10:13:38;;;;;;;23.52;14.68;;;;;;;19.63;100.00;101495.94;4994966;28;20118;-68
2023/09/29 10:16:05;;;;;;;31.13;15.93;;;;;;;19.76;100.00;101514.91;4995838;28;20038;-69
2023/09/29 10:18:33;;;;;;;21.63;14.90;;;;;;;19.84;100.00;101522.00;4995474;28;20026;-69
2023/09/29 10:21:06;;;;;;;20.67;14.38;;;;;;;19.88;100.00;101513.25;4995772;28;20096;-67
2023/09/29 10:23:45;;;;;;;25.13;15.50;;;;;;;19.90;100.00;101516.59;4995459;28;20093;-68
2023/09/29 10:26:11;;;;;;;;;;;;;;;19.93;100.00;101515.34;4995814;28;20069;-71
2023/09/29 10:28:40;;;;;;;19.52;13.07;;;;;;;19.91;100.00;101498.50;4995635;28;20431;-68
2023/09/29 10:31:14;;;;;;;19.80;12.48;;;;;;;19.98;100.00;101500.19;4977428;28;20031;-68
2023/09/29 10:33:56;;;;;;;18.10;12.73;;;;;;;19.98;100.00;101486.69;4994839;28;20034;-69
2023/09/29 10:36:23;;;;;;;19.75;12.90;;;;;;;20.00;100.00;101484.59;4996452;28;20034;-68
2023/09/29 10:38:50;;;;;;;21.45;13.48;;;;;;;20.15;100.00;101503.31;4996597;28;20038;-67
2023/09/29 10:41:16;;;;;;;20.90;12.52;;;;;;;20.10;100.00;101474.19;4996894;28;20060;-68
2023/09/29 10:43:43;;;;;;;18.98;12.85;;;;;;;20.19;100.00;101487.50;4994833;28;20030;-65
2023/09/29 10:46:09;;;;;;;23.15;13.32;;;;;;;20.18;100.00;101469.59;4994112;28;20058;-68
2023/09/29 10:48:45;;;;;;;22.00;12.93;;;;;;;20.07;100.00;101433.22;4994352;28;20527;-68
2023/09/29 10:51:20;;;;;;;17.25;12.05;;;;;;;20.27;100.00;101457.56;4993163;28;20377;-67
2023/09/29 10:53:46;;;;;;;17.65;12.25;;;;;;;20.37;100.00;101464.19;4994064;28;20113;-70
2023/09/29 10:56:11;;;;;;;21.73;14.00;;;;;;;20.45;100.00;101476.69;4994293;28;20125;-70
2023/09/29 10:58:38;;;;;;;17.85;12.38;;;;;;;20.41;100.00;101464.63;4994132;28;20401;-68
2023/09/29 11:01:04;;;;;;;19.80;11.68;;;;;;;20.34;100.00;101455.66;4994194;28;20029;-67
2023/09/29 11:03:30;;;;;;;19.45;11.57;;;;;;;20.33;100.00;101456.72;4995524;28;20046;-67
2023/09/29 11:05:58;;;;;;;25.17;12.55;;;;;;;20.34;100.00;101467.31;4995417;28;20022;-67